sensor_id;sensor_type;location;lat;lon;timestamp;P1;durP1;ratioP1;P2;durP2;ratioP2
40945;SDS011;55635;50.264;11.918;2023-02-12T00:01:56;16.30;;;9.45;;
40945;SDS011;55635;50.264;11.918;2023-02-12T00:04:37;15.18;;;8.38;;
40945;SDS011;55635;50.264;11.918;2023-02-12T00:07:18;15.27;;;8.43;;
40945;SDS011;55635;50.264;11.918;2023-02-12T00:09:59;16.27;;;8.65;;
40945;SDS011;55635;50.264;11.918;2023-02-12T00:12:40;14.40;;;8.88;;
40945;SDS011;55635;50.264;11.918;2023-02-12T00:15:21;16.00;;;8.68;;
40945;SDS011;55635;50.264;11.918;2023-02-12T00:18:02;16.10;;;9.05;;
40945;SDS011;55635;50.264;11.918;2023-02-12T00:20:43;15.98;;;9.55;;
40945;SDS011;55635;50.264;11.918;2023-02-12T00:23:24;14.80;;;8.73;;
40945;SDS011;55635;50.264;11.918;2023-02-12T00:26:06;14.60;;;8.63;;
40945;SDS011;55635;50.264;11.918;2023-02-12T00:28:50;12.95;;;8.20;;
40945;SDS011;55635;50.264;11.918;2023-02-12T00:31:32;13.55;;;8.77;;
40945;SDS011;55635;50.264;11.918;2023-02-12T00:34:13;14.52;;;8.88;;
40945;SDS011;55635;50.264;11.918;2023-02-12T00:36:54;15.32;;;9.10;;
40945;SDS011;55635;50.264;11.918;2023-02-12T00:39:35;11.98;;;8.23;;
40945;SDS011;55635;50.264;11.918;2023-02-12T00:42:17;12.57;;;8.68;;
40945;SDS011;55635;50.264;11.918;2023-02-12T00:44:59;13.65;;;8.73;;
40945;SDS011;55635;50.264;11.918;2023-02-12T00:47:40;13.27;;;8.50;;
40945;SDS011;55635;50.264;11.918;2023-02-12T00:50:21;11.32;;;7.97;;
40945;SDS011;55635;50.264;11.918;2023-02-12T00:53:05;11.25;;;7.90;;
40945;SDS011;55635;50.264;11.918;2023-02-12T00:55:47;11.57;;;8.43;;
40945;SDS011;55635;50.264;11.918;2023-02-12T00:58:27;14.43;;;8.00;;
40945;SDS011;55635;50.264;11.918;2023-02-12T01:01:08;15.85;;;8.90;;
40945;SDS011;55635;50.264;11.918;2023-02-12T01:04:09;14.25;;;8.30;;
40945;SDS011;55635;50.264;11.918;2023-02-12T01:06:52;13.55;;;8.98;;
40945;SDS011;55635;50.264;11.918;2023-02-12T01:09:32;12.48;;;8.15;;
40945;SDS011;55635;50.264;11.918;2023-02-12T01:12:13;12.52;;;8.27;;
40945;SDS011;55635;50.264;11.918;2023-02-12T01:14:54;13.32;;;8.15;;
40945;SDS011;55635;50.264;11.918;2023-02-12T01:17:36;15.00;;;8.52;;
40945;SDS011;55635;50.264;11.918;2023-02-12T01:20:17;17.23;;;12.63;;
40945;SDS011;55635;50.264;11.918;2023-02-12T01:23:02;20.38;;;12.98;;
40945;SDS011;55635;50.264;11.918;2023-02-12T01:25:45;12.95;;;8.32;;
40945;SDS011;55635;50.264;11.918;2023-02-12T01:28:26;14.50;;;9.43;;
40945;SDS011;55635;50.264;11.918;2023-02-12T01:31:08;11.35;;;7.95;;
40945;SDS011;55635;50.264;11.918;2023-02-12T01:33:56;12.82;;;8.20;;
40945;SDS011;55635;50.264;11.918;2023-02-12T01:36:39;13.13;;;8.60;;
40945;SDS011;55635;50.264;11.918;2023-02-12T01:39:20;14.52;;;8.95;;
40945;SDS011;55635;50.264;11.918;2023-02-12T01:42:02;15.55;;;8.63;;
40945;SDS011;55635;50.264;11.918;2023-02-12T01:44:45;12.40;;;8.45;;
40945;SDS011;55635;50.264;11.918;2023-02-12T01:47:53;14.60;;;8.82;;
40945;SDS011;55635;50.264;11.918;2023-02-12T01:50:35;12.85;;;8.40;;
40945;SDS011;55635;50.264;11.918;2023-02-12T01:53:18;13.15;;;8.63;;
40945;SDS011;55635;50.264;11.918;2023-02-12T01:56:01;12.48;;;8.23;;
40945;SDS011;55635;50.264;11.918;2023-02-12T01:58:44;13.85;;;8.57;;
40945;SDS011;55635;50.264;11.918;2023-02-12T02:01:27;15.45;;;9.48;;
40945;SDS011;55635;50.264;11.918;2023-02-12T02:04:14;11.27;;;7.88;;
40945;SDS011;55635;50.264;11.918;2023-02-12T02:07:01;15.15;;;9.30;;
40945;SDS011;55635;50.264;11.918;2023-02-12T02:09:45;16.33;;;9.57;;
40945;SDS011;55635;50.264;11.918;2023-02-12T02:12:26;14.48;;;8.80;;
40945;SDS011;55635;50.264;11.918;2023-02-12T02:15:28;13.93;;;8.32;;
40945;SDS011;55635;50.264;11.918;2023-02-12T02:18:11;15.43;;;9.70;;
40945;SDS011;55635;50.264;11.918;2023-02-12T02:27:26;16.55;;;9.60;;
40945;SDS011;55635;50.264;11.918;2023-02-12T02:33:36;20.55;;;10.38;;
40945;SDS011;55635;50.264;11.918;2023-02-12T02:40:10;15.35;;;8.90;;
40945;SDS011;55635;50.264;11.918;2023-02-12T02:43:03;16.33;;;9.48;;
40945;SDS011;55635;50.264;11.918;2023-02-12T02:45:51;15.80;;;9.30;;
40945;SDS011;55635;50.264;11.918;2023-02-12T02:48:45;18.08;;;9.77;;
40945;SDS011;55635;50.264;11.918;2023-02-12T02:51:34;18.65;;;9.60;;
40945;SDS011;55635;50.264;11.918;2023-02-12T02:54:25;19.63;;;10.13;;
40945;SDS011;55635;50.264;11.918;2023-02-12T03:03:00;20.58;;;10.20;;
40945;SDS011;55635;50.264;11.918;2023-02-12T03:08:50;19.00;;;9.88;;
40945;SDS011;55635;50.264;11.918;2023-02-12T03:11:37;21.17;;;11.00;;
40945;SDS011;55635;50.264;11.918;2023-02-12T03:17:34;20.75;;;10.52;;
40945;SDS011;55635;50.264;11.918;2023-02-12T03:20:23;20.73;;;11.30;;
40945;SDS011;55635;50.264;11.918;2023-02-12T03:23:14;19.02;;;10.45;;
40945;SDS011;55635;50.264;11.918;2023-02-12T03:28:47;17.83;;;9.73;;
40945;SDS011;55635;50.264;11.918;2023-02-12T03:34:45;18.50;;;10.82;;
40945;SDS011;55635;50.264;11.918;2023-02-12T03:40:39;19.10;;;10.35;;
40945;SDS011;55635;50.264;11.918;2023-02-12T03:43:37;22.48;;;10.88;;
40945;SDS011;55635;50.264;11.918;2023-02-12T03:49:52;17.52;;;10.55;;
40945;SDS011;55635;50.264;11.918;2023-02-12T03:52:41;19.55;;;10.30;;
40945;SDS011;55635;50.264;11.918;2023-02-12T03:55:24;28.48;;;12.20;;
40945;SDS011;55635;50.264;11.918;2023-02-12T03:58:06;21.70;;;11.52;;
40945;SDS011;55635;50.264;11.918;2023-02-12T04:00:51;20.35;;;11.60;;
40945;SDS011;55635;50.264;11.918;2023-02-12T04:03:32;24.90;;;11.68;;
40945;SDS011;55635;50.264;11.918;2023-02-12T04:06:21;22.52;;;11.45;;
40945;SDS011;55635;50.264;11.918;2023-02-12T04:09:06;23.80;;;12.50;;
40945;SDS011;55635;50.264;11.918;2023-02-12T04:18:13;23.92;;;11.65;;
40945;SDS011;55635;50.264;11.918;2023-02-12T04:21:30;16.85;;;9.07;;
40945;SDS011;55635;50.264;11.918;2023-02-12T04:24:45;19.05;;;10.77;;
40945;SDS011;55635;50.264;11.918;2023-02-12T04:31:38;24.70;;;11.70;;
40945;SDS011;55635;50.264;11.918;2023-02-12T04:34:42;32.53;;;12.32;;
40945;SDS011;55635;50.264;11.918;2023-02-12T04:37:38;25.23;;;11.75;;
40945;SDS011;55635;50.264;11.918;2023-02-12T04:40:28;23.50;;;11.70;;
40945;SDS011;55635;50.264;11.918;2023-02-12T04:43:09;24.00;;;11.63;;
40945;SDS011;55635;50.264;11.918;2023-02-12T04:45:50;26.98;;;11.77;;
40945;SDS011;55635;50.264;11.918;2023-02-12T04:48:31;24.15;;;11.68;;
40945;SDS011;55635;50.264;11.918;2023-02-12T04:51:13;23.83;;;11.68;;
40945;SDS011;55635;50.264;11.918;2023-02-12T04:53:54;25.33;;;12.68;;
40945;SDS011;55635;50.264;11.918;2023-02-12T04:56:35;28.38;;;12.15;;
40945;SDS011;55635;50.264;11.918;2023-02-12T04:59:16;30.58;;;12.45;;
40945;SDS011;55635;50.264;11.918;2023-02-12T05:01:57;21.95;;;11.52;;
40945;SDS011;55635;50.264;11.918;2023-02-12T05:04:38;29.67;;;12.70;;
40945;SDS011;55635;50.264;11.918;2023-02-12T05:07:19;23.95;;;11.20;;
40945;SDS011;55635;50.264;11.918;2023-02-12T05:09:59;21.55;;;10.70;;
40945;SDS011;55635;50.264;11.918;2023-02-12T05:12:40;19.25;;;10.75;;
40945;SDS011;55635;50.264;11.918;2023-02-12T05:15:21;32.85;;;12.40;;
40945;SDS011;55635;50.264;11.918;2023-02-12T05:18:02;27.30;;;12.43;;
40945;SDS011;55635;50.264;11.918;2023-02-12T05:20:43;32.72;;;12.55;;
40945;SDS011;55635;50.264;11.918;2023-02-12T05:23:25;33.05;;;11.70;;
40945;SDS011;55635;50.264;11.918;2023-02-12T05:26:17;46.70;;;12.95;;
40945;SDS011;55635;50.264;11.918;2023-02-12T05:29:00;40.90;;;13.95;;
40945;SDS011;55635;50.264;11.918;2023-02-12T05:31:42;44.55;;;12.68;;
40945;SDS011;55635;50.264;11.918;2023-02-12T05:34:23;66.32;;;15.32;;
40945;SDS011;55635;50.264;11.918;2023-02-12T05:37:04;62.72;;;13.45;;
40945;SDS011;55635;50.264;11.918;2023-02-12T05:39:47;55.72;;;14.02;;
40945;SDS011;55635;50.264;11.918;2023-02-12T05:42:29;25.88;;;12.60;;
40945;SDS011;55635;50.264;11.918;2023-02-12T05:45:10;35.97;;;11.73;;
40945;SDS011;55635;50.264;11.918;2023-02-12T05:47:51;32.25;;;11.73;;
40945;SDS011;55635;50.264;11.918;2023-02-12T05:50:33;57.53;;;13.25;;
40945;SDS011;55635;50.264;11.918;2023-02-12T05:53:21;48.50;;;12.98;;
40945;SDS011;55635;50.264;11.918;2023-02-12T05:59:05;52.05;;;14.82;;
40945;SDS011;55635;50.264;11.918;2023-02-12T06:01:51;48.45;;;14.93;;
40945;SDS011;55635;50.264;11.918;2023-02-12T06:04:33;62.92;;;15.95;;
40945;SDS011;55635;50.264;11.918;2023-02-12T06:07:13;90.40;;;16.55;;
40945;SDS011;55635;50.264;11.918;2023-02-12T06:09:54;182.27;;;19.48;;
40945;SDS011;55635;50.264;11.918;2023-02-12T06:12:35;171.45;;;22.00;;
40945;SDS011;55635;50.264;11.918;2023-02-12T06:15:16;30.13;;;12.68;;
40945;SDS011;55635;50.264;11.918;2023-02-12T06:17:57;162.25;;;24.67;;
40945;SDS011;55635;50.264;11.918;2023-02-12T06:20:38;136.07;;;17.33;;
40945;SDS011;55635;50.264;11.918;2023-02-12T06:23:20;51.05;;;14.32;;
40945;SDS011;55635;50.264;11.918;2023-02-12T06:26:04;118.80;;;17.05;;
40945;SDS011;55635;50.264;11.918;2023-02-12T06:28:45;38.55;;;12.02;;
40945;SDS011;55635;50.264;11.918;2023-02-12T06:31:28;25.67;;;9.85;;
40945;SDS011;55635;50.264;11.918;2023-02-12T06:34:12;36.25;;;10.48;;
40945;SDS011;55635;50.264;11.918;2023-02-12T06:36:54;33.67;;;10.10;;
40945;SDS011;55635;50.264;11.918;2023-02-12T06:39:35;22.50;;;9.82;;
40945;SDS011;55635;50.264;11.918;2023-02-12T06:42:16;87.35;;;14.23;;
40945;SDS011;55635;50.264;11.918;2023-02-12T06:44:56;211.00;;;18.25;;
40945;SDS011;55635;50.264;11.918;2023-02-12T06:47:37;30.52;;;10.75;;
40945;SDS011;55635;50.264;11.918;2023-02-12T06:50:18;116.25;;;13.15;;
40945;SDS011;55635;50.264;11.918;2023-02-12T06:52:59;47.70;;;12.00;;
40945;SDS011;55635;50.264;11.918;2023-02-12T06:55:40;57.47;;;12.32;;
40945;SDS011;55635;50.264;11.918;2023-02-12T06:58:21;40.97;;;12.52;;
40945;SDS011;55635;50.264;11.918;2023-02-12T07:01:12;144.35;;;22.38;;
40945;SDS011;55635;50.264;11.918;2023-02-12T07:03:59;351.60;;;32.78;;
40945;SDS011;55635;50.264;11.918;2023-02-12T07:06:41;390.67;;;30.83;;
40945;SDS011;55635;50.264;11.918;2023-02-12T07:09:23;133.77;;;15.45;;
40945;SDS011;55635;50.264;11.918;2023-02-12T07:12:04;161.68;;;16.10;;
40945;SDS011;55635;50.264;11.918;2023-02-12T07:14:45;81.60;;;13.32;;
40945;SDS011;55635;50.264;11.918;2023-02-12T07:17:27;74.22;;;11.80;;
40945;SDS011;55635;50.264;11.918;2023-02-12T07:20:10;28.35;;;10.57;;
40945;SDS011;55635;50.264;11.918;2023-02-12T07:22:51;30.45;;;8.40;;
40945;SDS011;55635;50.264;11.918;2023-02-12T07:25:32;131.00;;;12.55;;
40945;SDS011;55635;50.264;11.918;2023-02-12T07:28:14;47.25;;;10.65;;
40945;SDS011;55635;50.264;11.918;2023-02-12T07:30:54;165.98;;;15.45;;
40945;SDS011;55635;50.264;11.918;2023-02-12T07:33:36;74.78;;;12.77;;
40945;SDS011;55635;50.264;11.918;2023-02-12T07:36:18;227.07;;;20.95;;
40945;SDS011;55635;50.264;11.918;2023-02-12T07:38:59;356.65;;;27.90;;
40945;SDS011;55635;50.264;11.918;2023-02-12T07:41:40;233.80;;;17.98;;
40945;SDS011;55635;50.264;11.918;2023-02-12T07:44:21;229.60;;;19.42;;
40945;SDS011;55635;50.264;11.918;2023-02-12T07:47:02;210.07;;;17.30;;
40945;SDS011;55635;50.264;11.918;2023-02-12T07:49:44;219.02;;;17.70;;
40945;SDS011;55635;50.264;11.918;2023-02-12T07:52:25;247.60;;;21.83;;
40945;SDS011;55635;50.264;11.918;2023-02-12T07:55:06;230.77;;;17.58;;
40945;SDS011;55635;50.264;11.918;2023-02-12T07:57:47;302.45;;;22.25;;
40945;SDS011;55635;50.264;11.918;2023-02-12T08:00:28;58.60;;;12.50;;
40945;SDS011;55635;50.264;11.918;2023-02-12T08:03:09;364.17;;;24.95;;
40945;SDS011;55635;50.264;11.918;2023-02-12T08:05:50;110.45;;;16.75;;
40945;SDS011;55635;50.264;11.918;2023-02-12T08:08:31;291.65;;;23.65;;
40945;SDS011;55635;50.264;11.918;2023-02-12T08:11:12;153.57;;;18.58;;
40945;SDS011;55635;50.264;11.918;2023-02-12T08:13:55;192.70;;;19.92;;
40945;SDS011;55635;50.264;11.918;2023-02-12T08:16:39;91.68;;;14.90;;
40945;SDS011;55635;50.264;11.918;2023-02-12T08:19:21;124.55;;;14.82;;
40945;SDS011;55635;50.264;11.918;2023-02-12T08:22:02;56.72;;;11.32;;
40945;SDS011;55635;50.264;11.918;2023-02-12T08:24:43;126.07;;;17.48;;
40945;SDS011;55635;50.264;11.918;2023-02-12T08:27:24;91.97;;;13.70;;
40945;SDS011;55635;50.264;11.918;2023-02-12T08:30:05;222.52;;;23.40;;
40945;SDS011;55635;50.264;11.918;2023-02-12T08:32:50;152.02;;;17.00;;
40945;SDS011;55635;50.264;11.918;2023-02-12T08:35:31;347.63;;;23.33;;
40945;SDS011;55635;50.264;11.918;2023-02-12T08:38:12;368.77;;;28.13;;
40945;SDS011;55635;50.264;11.918;2023-02-12T08:40:53;302.67;;;27.05;;
40945;SDS011;55635;50.264;11.918;2023-02-12T08:43:35;232.20;;;23.13;;
40945;SDS011;55635;50.264;11.918;2023-02-12T08:46:17;265.20;;;25.15;;
40945;SDS011;55635;50.264;11.918;2023-02-12T08:49:02;134.15;;;17.63;;
40945;SDS011;55635;50.264;11.918;2023-02-12T08:51:47;134.45;;;18.67;;
40945;SDS011;55635;50.264;11.918;2023-02-12T08:54:31;168.93;;;18.67;;
40945;SDS011;55635;50.264;11.918;2023-02-12T08:57:12;100.60;;;15.60;;
40945;SDS011;55635;50.264;11.918;2023-02-12T08:59:52;61.40;;;12.40;;
40945;SDS011;55635;50.264;11.918;2023-02-12T09:02:33;77.05;;;14.55;;
40945;SDS011;55635;50.264;11.918;2023-02-12T09:05:14;39.92;;;11.82;;
40945;SDS011;55635;50.264;11.918;2023-02-12T09:07:55;52.55;;;13.75;;
40945;SDS011;55635;50.264;11.918;2023-02-12T09:10:40;60.45;;;13.18;;
40945;SDS011;55635;50.264;11.918;2023-02-12T09:13:22;39.08;;;12.05;;
40945;SDS011;55635;50.264;11.918;2023-02-12T09:16:04;61.88;;;12.65;;
40945;SDS011;55635;50.264;11.918;2023-02-12T09:18:46;50.85;;;12.90;;
40945;SDS011;55635;50.264;11.918;2023-02-12T09:21:27;54.85;;;13.55;;
40945;SDS011;55635;50.264;11.918;2023-02-12T09:24:08;34.92;;;11.93;;
40945;SDS011;55635;50.264;11.918;2023-02-12T09:26:49;27.75;;;10.30;;
40945;SDS011;55635;50.264;11.918;2023-02-12T09:29:30;27.20;;;9.55;;
40945;SDS011;55635;50.264;11.918;2023-02-12T09:32:14;35.22;;;10.68;;
40945;SDS011;55635;50.264;11.918;2023-02-12T09:34:55;25.08;;;10.38;;
40945;SDS011;55635;50.264;11.918;2023-02-12T09:37:36;28.25;;;10.07;;
40945;SDS011;55635;50.264;11.918;2023-02-12T09:43:43;22.00;;;9.27;;
40945;SDS011;55635;50.264;11.918;2023-02-12T09:46:41;37.22;;;10.90;;
40945;SDS011;55635;50.264;11.918;2023-02-12T09:52:28;22.90;;;8.43;;
40945;SDS011;55635;50.264;11.918;2023-02-12T09:55:16;23.27;;;8.93;;
40945;SDS011;55635;50.264;11.918;2023-02-12T10:16:42;12.93;;;6.65;;
40945;SDS011;55635;50.264;11.918;2023-02-12T10:29:19;13.38;;;6.80;;
40945;SDS011;55635;50.264;11.918;2023-02-12T10:32:04;12.60;;;6.55;;
40945;SDS011;55635;50.264;11.918;2023-02-12T10:35:15;15.70;;;7.57;;
40945;SDS011;55635;50.264;11.918;2023-02-12T10:38:04;13.70;;;7.25;;
40945;SDS011;55635;50.264;11.918;2023-02-12T10:41:05;13.05;;;7.18;;
40945;SDS011;55635;50.264;11.918;2023-02-12T10:43:46;10.93;;;6.53;;
40945;SDS011;55635;50.264;11.918;2023-02-12T10:55:31;12.32;;;7.28;;
40945;SDS011;55635;50.264;11.918;2023-02-12T10:58:20;16.80;;;8.05;;
40945;SDS011;55635;50.264;11.918;2023-02-12T11:06:20;9.23;;;5.15;;
40945;SDS011;55635;50.264;11.918;2023-02-12T11:09:18;9.45;;;5.75;;
40945;SDS011;55635;50.264;11.918;2023-02-12T11:15:21;8.02;;;4.78;;
40945;SDS011;55635;50.264;11.918;2023-02-12T11:18:06;7.25;;;5.25;;
40945;SDS011;55635;50.264;11.918;2023-02-12T11:21:09;7.95;;;5.55;;
40945;SDS011;55635;50.264;11.918;2023-02-12T11:23:51;8.18;;;5.03;;
40945;SDS011;55635;50.264;11.918;2023-02-12T11:30:14;7.60;;;5.10;;
40945;SDS011;55635;50.264;11.918;2023-02-12T11:33:16;6.60;;;5.22;;
40945;SDS011;55635;50.264;11.918;2023-02-12T11:36:12;6.43;;;4.95;;
40945;SDS011;55635;50.264;11.918;2023-02-12T11:39:03;5.32;;;3.90;;
40945;SDS011;55635;50.264;11.918;2023-02-12T11:41:49;5.45;;;4.25;;
40945;SDS011;55635;50.264;11.918;2023-02-12T11:44:35;5.82;;;3.78;;
40945;SDS011;55635;50.264;11.918;2023-02-12T11:47:26;4.63;;;3.60;;
40945;SDS011;55635;50.264;11.918;2023-02-12T11:50:24;5.93;;;4.30;;
40945;SDS011;55635;50.264;11.918;2023-02-12T11:53:08;5.95;;;4.15;;
40945;SDS011;55635;50.264;11.918;2023-02-12T11:55:58;5.25;;;3.67;;
40945;SDS011;55635;50.264;11.918;2023-02-12T11:58:47;5.85;;;3.55;;
40945;SDS011;55635;50.264;11.918;2023-02-12T12:01:31;5.10;;;3.55;;
40945;SDS011;55635;50.264;11.918;2023-02-12T12:04:15;5.05;;;4.32;;
40945;SDS011;55635;50.264;11.918;2023-02-12T12:07:00;6.07;;;4.10;;
40945;SDS011;55635;50.264;11.918;2023-02-12T12:10:06;5.10;;;3.90;;
40945;SDS011;55635;50.264;11.918;2023-02-12T12:13:16;10.82;;;7.38;;
40945;SDS011;55635;50.264;11.918;2023-02-12T12:16:05;10.13;;;7.40;;
40945;SDS011;55635;50.264;11.918;2023-02-12T12:19:26;13.55;;;7.13;;
40945;SDS011;55635;50.264;11.918;2023-02-12T12:28:44;12.05;;;7.00;;
40945;SDS011;55635;50.264;11.918;2023-02-12T12:32:00;14.27;;;8.00;;
40945;SDS011;55635;50.264;11.918;2023-02-12T12:34:44;15.60;;;7.65;;
40945;SDS011;55635;50.264;11.918;2023-02-12T12:43:33;15.00;;;8.65;;
40945;SDS011;55635;50.264;11.918;2023-02-12T12:47:06;13.57;;;7.60;;
40945;SDS011;55635;50.264;11.918;2023-02-12T12:50:19;14.55;;;8.48;;
40945;SDS011;55635;50.264;11.918;2023-02-12T12:56:48;14.50;;;8.18;;
40945;SDS011;55635;50.264;11.918;2023-02-12T13:00:13;16.92;;;8.63;;
40945;SDS011;55635;50.264;11.918;2023-02-12T13:06:07;22.08;;;10.38;;
40945;SDS011;55635;50.264;11.918;2023-02-12T13:15:36;16.38;;;8.18;;
40945;SDS011;55635;50.264;11.918;2023-02-12T13:24:28;12.60;;;7.75;;
40945;SDS011;55635;50.264;11.918;2023-02-12T13:27:34;16.83;;;8.32;;
40945;SDS011;55635;50.264;11.918;2023-02-12T13:30:21;16.77;;;9.07;;
40945;SDS011;55635;50.264;11.918;2023-02-12T13:33:27;15.45;;;9.27;;
40945;SDS011;55635;50.264;11.918;2023-02-12T13:36:24;15.90;;;8.38;;
40945;SDS011;55635;50.264;11.918;2023-02-12T13:42:17;12.77;;;8.27;;
40945;SDS011;55635;50.264;11.918;2023-02-12T13:45:56;14.98;;;8.93;;
40945;SDS011;55635;50.264;11.918;2023-02-12T13:52:10;12.35;;;8.35;;
40945;SDS011;55635;50.264;11.918;2023-02-12T14:07:13;13.45;;;7.32;;
40945;SDS011;55635;50.264;11.918;2023-02-12T14:12:36;9.98;;;6.60;;
40945;SDS011;55635;50.264;11.918;2023-02-12T14:15:29;11.32;;;7.13;;
40945;SDS011;55635;50.264;11.918;2023-02-12T14:18:25;13.20;;;7.55;;
40945;SDS011;55635;50.264;11.918;2023-02-12T14:24:39;11.32;;;7.88;;
40945;SDS011;55635;50.264;11.918;2023-02-12T14:27:26;14.25;;;8.38;;
40945;SDS011;55635;50.264;11.918;2023-02-12T14:30:34;11.50;;;7.32;;
40945;SDS011;55635;50.264;11.918;2023-02-12T14:33:20;12.93;;;8.20;;
40945;SDS011;55635;50.264;11.918;2023-02-12T14:36:18;13.13;;;7.85;;
40945;SDS011;55635;50.264;11.918;2023-02-12T14:44:55;9.98;;;7.32;;
40945;SDS011;55635;50.264;11.918;2023-02-12T14:50:21;11.52;;;7.70;;
40945;SDS011;55635;50.264;11.918;2023-02-12T14:56:11;10.23;;;7.97;;
40945;SDS011;55635;50.264;11.918;2023-02-12T14:58:52;10.57;;;7.55;;
40945;SDS011;55635;50.264;11.918;2023-02-12T15:01:38;10.95;;;8.00;;
40945;SDS011;55635;50.264;11.918;2023-02-12T15:04:40;11.07;;;7.65;;
40945;SDS011;55635;50.264;11.918;2023-02-12T15:08:06;16.17;;;10.05;;
40945;SDS011;55635;50.264;11.918;2023-02-12T15:10:36;15.80;;;10.13;;
40945;SDS011;55635;50.264;11.918;2023-02-12T15:19:42;16.83;;;10.73;;
40945;SDS011;55635;50.264;11.918;2023-02-12T15:22:35;19.63;;;10.88;;
40945;SDS011;55635;50.264;11.918;2023-02-12T15:25:21;16.42;;;10.73;;
40945;SDS011;55635;50.264;11.918;2023-02-12T15:31:05;16.52;;;10.10;;
40945;SDS011;55635;50.264;11.918;2023-02-12T15:33:50;16.90;;;10.30;;
40945;SDS011;55635;50.264;11.918;2023-02-12T15:36:34;16.38;;;9.98;;
40945;SDS011;55635;50.264;11.918;2023-02-12T15:39:18;16.77;;;10.82;;
40945;SDS011;55635;50.264;11.918;2023-02-12T15:42:01;16.65;;;9.98;;
40945;SDS011;55635;50.264;11.918;2023-02-12T15:44:42;18.25;;;10.60;;
40945;SDS011;55635;50.264;11.918;2023-02-12T15:47:23;16.90;;;10.23;;
40945;SDS011;55635;50.264;11.918;2023-02-12T15:50:14;14.23;;;9.38;;
40945;SDS011;55635;50.264;11.918;2023-02-12T15:52:57;11.18;;;8.02;;
40945;SDS011;55635;50.264;11.918;2023-02-12T15:55:39;12.00;;;7.63;;
40945;SDS011;55635;50.264;11.918;2023-02-12T15:58:28;11.05;;;7.88;;
40945;SDS011;55635;50.264;11.918;2023-02-12T16:01:22;14.10;;;9.55;;
40945;SDS011;55635;50.264;11.918;2023-02-12T16:04:09;9.77;;;6.63;;
40945;SDS011;55635;50.264;11.918;2023-02-12T16:06:51;10.60;;;6.97;;
40945;SDS011;55635;50.264;11.918;2023-02-12T16:09:35;11.30;;;7.85;;
40945;SDS011;55635;50.264;11.918;2023-02-12T16:12:18;12.45;;;8.02;;
40945;SDS011;55635;50.264;11.918;2023-02-12T16:15:03;12.55;;;8.00;;
40945;SDS011;55635;50.264;11.918;2023-02-12T16:17:45;17.20;;;11.60;;
40945;SDS011;55635;50.264;11.918;2023-02-12T16:20:27;26.02;;;15.65;;
40945;SDS011;55635;50.264;11.918;2023-02-12T16:23:10;13.32;;;9.25;;
40945;SDS011;55635;50.264;11.918;2023-02-12T16:25:53;14.02;;;8.68;;
40945;SDS011;55635;50.264;11.918;2023-02-12T16:28:34;13.50;;;9.50;;
40945;SDS011;55635;50.264;11.918;2023-02-12T16:31:16;16.23;;;9.95;;
40945;SDS011;55635;50.264;11.918;2023-02-12T16:33:58;15.68;;;11.15;;
40945;SDS011;55635;50.264;11.918;2023-02-12T16:36:44;16.80;;;10.85;;
40945;SDS011;55635;50.264;11.918;2023-02-12T16:42:33;12.63;;;8.65;;
40945;SDS011;55635;50.264;11.918;2023-02-12T16:48:06;16.55;;;9.77;;
40945;SDS011;55635;50.264;11.918;2023-02-12T16:50:50;16.45;;;10.38;;
40945;SDS011;55635;50.264;11.918;2023-02-12T16:53:45;16.10;;;10.40;;
40945;SDS011;55635;50.264;11.918;2023-02-12T16:56:27;39.08;;;26.05;;
40945;SDS011;55635;50.264;11.918;2023-02-12T16:59:17;26.75;;;15.45;;
40945;SDS011;55635;50.264;11.918;2023-02-12T17:02:02;15.40;;;9.70;;
40945;SDS011;55635;50.264;11.918;2023-02-12T17:04:52;15.70;;;10.00;;
40945;SDS011;55635;50.264;11.918;2023-02-12T17:07:34;12.50;;;9.23;;
40945;SDS011;55635;50.264;11.918;2023-02-12T17:10:15;14.75;;;9.75;;
40945;SDS011;55635;50.264;11.918;2023-02-12T17:12:57;25.90;;;18.98;;
40945;SDS011;55635;50.264;11.918;2023-02-12T17:15:59;334.17;;;41.03;;
40945;SDS011;55635;50.264;11.918;2023-02-12T17:18:40;29.23;;;20.33;;
40945;SDS011;55635;50.264;11.918;2023-02-12T17:21:26;30.10;;;18.83;;
40945;SDS011;55635;50.264;11.918;2023-02-12T17:24:18;861.33;;;477.95;;
40945;SDS011;55635;50.264;11.918;2023-02-12T17:27:03;170.52;;;101.95;;
40945;SDS011;55635;50.264;11.918;2023-02-12T17:29:46;31.92;;;18.30;;
40945;SDS011;55635;50.264;11.918;2023-02-12T17:32:26;26.05;;;16.38;;
40945;SDS011;55635;50.264;11.918;2023-02-12T17:35:08;436.13;;;143.35;;
40945;SDS011;55635;50.264;11.918;2023-02-12T17:37:49;930.45;;;456.20;;
40945;SDS011;55635;50.264;11.918;2023-02-12T17:40:30;100.65;;;45.20;;
40945;SDS011;55635;50.264;11.918;2023-02-12T17:43:11;20.63;;;11.15;;
40945;SDS011;55635;50.264;11.918;2023-02-12T17:45:52;62.67;;;38.00;;
40945;SDS011;55635;50.264;11.918;2023-02-12T17:48:33;68.95;;;39.33;;
40945;SDS011;55635;50.264;11.918;2023-02-12T17:51:14;355.60;;;127.25;;
40945;SDS011;55635;50.264;11.918;2023-02-12T17:53:55;667.47;;;251.23;;
40945;SDS011;55635;50.264;11.918;2023-02-12T17:56:36;1032.80;;;538.55;;
40945;SDS011;55635;50.264;11.918;2023-02-12T17:59:17;415.83;;;179.13;;
40945;SDS011;55635;50.264;11.918;2023-02-12T18:01:58;140.07;;;58.15;;
40945;SDS011;55635;50.264;11.918;2023-02-12T18:04:39;76.18;;;32.42;;
40945;SDS011;55635;50.264;11.918;2023-02-12T18:07:20;44.05;;;24.15;;
40945;SDS011;55635;50.264;11.918;2023-02-12T18:10:01;109.30;;;37.83;;
40945;SDS011;55635;50.264;11.918;2023-02-12T18:12:44;71.45;;;23.13;;
40945;SDS011;55635;50.264;11.918;2023-02-12T18:15:25;68.07;;;15.63;;
40945;SDS011;55635;50.264;11.918;2023-02-12T18:18:06;26.50;;;15.60;;
40945;SDS011;55635;50.264;11.918;2023-02-12T18:20:47;65.00;;;30.23;;
40945;SDS011;55635;50.264;11.918;2023-02-12T18:23:28;129.80;;;29.40;;
40945;SDS011;55635;50.264;11.918;2023-02-12T18:26:10;121.47;;;39.75;;
40945;SDS011;55635;50.264;11.918;2023-02-12T18:28:57;532.03;;;63.85;;
40945;SDS011;55635;50.264;11.918;2023-02-12T18:31:38;639.83;;;77.10;;
40945;SDS011;55635;50.264;11.918;2023-02-12T18:34:19;482.08;;;48.95;;
40945;SDS011;55635;50.264;11.918;2023-02-12T18:37:00;291.10;;;45.03;;
40945;SDS011;55635;50.264;11.918;2023-02-12T18:39:41;280.33;;;28.60;;
40945;SDS011;55635;50.264;11.918;2023-02-12T18:42:22;152.32;;;24.90;;
40945;SDS011;55635;50.264;11.918;2023-02-12T18:45:03;225.48;;;25.50;;
40945;SDS011;55635;50.264;11.918;2023-02-12T18:47:44;239.40;;;24.02;;
40945;SDS011;55635;50.264;11.918;2023-02-12T18:50:25;187.70;;;32.65;;
40945;SDS011;55635;50.264;11.918;2023-02-12T18:53:06;134.40;;;16.88;;
40945;SDS011;55635;50.264;11.918;2023-02-12T18:55:47;52.17;;;15.15;;
40945;SDS011;55635;50.264;11.918;2023-02-12T18:58:28;135.27;;;17.15;;
40945;SDS011;55635;50.264;11.918;2023-02-12T19:01:13;36.33;;;12.88;;
40945;SDS011;55635;50.264;11.918;2023-02-12T19:03:58;25.83;;;10.77;;
40945;SDS011;55635;50.264;11.918;2023-02-12T19:06:43;336.00;;;22.83;;
40945;SDS011;55635;50.264;11.918;2023-02-12T19:09:29;280.83;;;25.48;;
40945;SDS011;55635;50.264;11.918;2023-02-12T19:12:11;271.35;;;26.63;;